Time;durP1;ratioP1;P1;durP2;ratioP2;P2;SDS_P1;SDS_P2;PMS_P1;PMS_P2;Temp;Humidity;BMP_temperature;BMP_pressure;BME280_temperature;BME280_humidity;BME280_pressure;Samples;Min_cycle;Max_cycle;Signal;HPM_P1;HPM_P2
2024/01/31 00:02:05;;;;;;;16.20;12.10;;;;;;;4.65;49.91;103798.13;106654;1254;22543;-54
2024/01/31 00:04:32;;;;;;;14.90;11.60;;;;;;;4.67;50.18;103799.26;106672;1270;24002;-53
2024/01/31 00:07:00;;;;;;;15.80;12.50;;;;;;;4.69;50.02;103797.32;105955;1257;1002932;-52
2024/01/31 00:09:28;;;;;;;17.30;12.70;;;;;;;4.73;50.01;103795.26;105951;1270;1003497;-53
2024/01/31 00:11:56;;;;;;;18.30;12.30;;;;;;;4.74;49.77;103798.24;105861;1257;1003779;-52
2024/01/31 00:14:24;;;;;;;15.50;12.00;;;;;;;4.69;49.60;103795.79;105846;1271;1002937;-52
2024/01/31 00:16:52;;;;;;;16.30;12.30;;;;;;;4.65;49.67;103796.95;105678;1261;1004065;-53
2024/01/31 00:19:19;;;;;;;15.60;11.40;;;;;;;4.60;49.98;103798.54;105846;1264;1002936;-53
2024/01/31 00:21:47;;;;;;;15.70;12.60;;;;;;;4.54;49.84;103801.15;105818;1257;1003141;-52
2024/01/31 00:24:15;;;;;;;18.30;12.70;;;;;;;4.45;49.84;103802.94;105979;1267;1003858;-52
2024/01/31 00:26:43;;;;;;;18.10;13.80;;;;;;;4.36;50.25;103797.14;106909;1258;22622;-52
2024/01/31 00:29:11;;;;;;;17.60;13.40;;;;;;;4.36;50.39;103804.00;106996;1269;22631;-52
2024/01/31 00:31:39;;;;;;;18.70;13.50;;;;;;;4.39;50.53;103801.58;106763;1273;22531;-52
2024/01/31 00:34:06;;;;;;;19.60;12.60;;;;;;;4.39;50.26;103800.90;106743;1260;22542;-52
2024/01/31 00:36:35;;;;;;;19.10;13.70;;;;;;;4.39;50.61;103798.14;106818;1257;22533;-52
2024/01/31 00:39:03;;;;;;;18.80;13.90;;;;;;;4.43;50.68;103794.09;106750;1260;22529;-53
2024/01/31 00:41:31;;;;;;;17.00;13.00;;;;;;;4.45;50.46;103790.70;106546;1257;22523;-52
2024/01/31 00:43:59;;;;;;;16.40;12.30;;;;;;;4.42;50.44;103787.98;106601;1260;24255;-53
2024/01/31 00:46:26;;;;;;;18.00;13.20;;;;;;;4.40;50.12;103783.91;105824;1258;1015741;-51
2024/01/31 00:48:55;;;;;;;16.70;12.10;;;;;;;4.34;50.23;103783.77;105829;1264;1003785;-51
2024/01/31 00:51:23;;;;;;;18.00;13.80;;;;;;;4.25;50.35;103779.86;105819;1258;1002850;-52
2024/01/31 00:53:51;;;;;;;17.70;13.70;;;;;;;4.16;50.55;103779.41;105534;1257;1003718;-52
2024/01/31 00:56:18;;;;;;;21.00;15.20;;;;;;;4.12;50.91;103775.44;105682;1269;1003385;-53
2024/01/31 00:58:46;;;;;;;22.90;15.90;;;;;;;4.10;51.10;103772.75;105703;1254;1003812;-52
2024/01/31 01:01:14;;;;;;;23.30;16.10;;;;;;;4.10;51.01;103771.52;106517;1261;22536;-51
2024/01/31 01:03:43;;;;;;;24.30;16.10;;;;;;;4.20;51.01;103770.48;106539;1260;22529;-52
2024/01/31 01:06:11;;;;;;;24.70;17.30;;;;;;;4.90;49.59;103764.14;105754;1260;1003693;-52
2024/01/31 01:08:39;;;;;;;22.70;17.30;;;;;;;4.73;49.69;103758.93;105775;1271;1015470;-52
2024/01/31 01:11:07;;;;;;;27.50;17.80;;;;;;;4.30;50.83;103760.05;105852;1261;1003765;-52
2024/01/31 01:13:36;;;;;;;24.90;18.20;;;;;;;4.25;50.98;103757.89;106514;1255;25246;-52
2024/01/31 01:16:04;;;;;;;27.20;18.00;;;;;;;4.25;51.23;103759.58;106522;1258;22529;-52
2024/01/31 01:18:32;;;;;;;28.20;19.40;;;;;;;4.24;51.35;103757.51;105902;1257;1003040;-52
2024/01/31 01:20:59;;;;;;;30.10;19.60;;;;;;;4.24;51.45;103757.33;106472;1257;22543;-52
2024/01/31 01:23:27;;;;;;;29.70;20.10;;;;;;;4.25;51.85;103754.27;106504;1264;22654;-53
2024/01/31 01:25:56;;;;;;;31.20;21.00;;;;;;;4.28;51.87;103750.98;106574;1254;25307;-52
2024/01/31 01:28:24;;;;;;;36.00;21.00;;;;;;;4.31;51.80;103747.54;106419;1270;22550;-52
2024/01/31 01:30:51;;;;;;;31.50;20.50;;;;;;;4.31;51.98;103738.77;106619;1257;22526;-52
2024/01/31 01:33:19;;;;;;;34.30;20.90;;;;;;;4.31;51.89;103735.88;106509;1258;24357;-53
2024/01/31 01:35:47;;;;;;;35.40;23.10;;;;;;;4.32;52.13;103734.19;106694;1263;22540;-52
2024/01/31 01:38:16;;;;;;;32.80;22.60;;;;;;;4.34;52.15;103734.14;106859;1254;22513;-53
2024/01/31 01:44:07;;;;;;;29.50;20.90;;;;;;;4.44;52.13;103726.89;103711;1298;544977;-52
2024/01/31 01:46:35;;;;;;;34.40;22.50;;;;;;;4.43;51.98;103720.30;105794;1275;24239;-51
2024/01/31 01:49:04;;;;;;;33.90;22.80;;;;;;;4.41;51.94;103716.80;105670;1277;1002467;-52
2024/01/31 01:51:32;;;;;;;31.60;22.60;;;;;;;4.43;52.06;103714.11;106297;1280;22537;-52
2024/01/31 01:54:00;;;;;;;34.80;23.50;;;;;;;4.43;52.01;103711.54;105211;1271;1003635;-53
2024/01/31 01:56:27;;;;;;;28.60;21.40;;;;;;;4.42;51.92;103707.88;105566;1270;1004042;-52
2024/01/31 01:58:55;;;;;;;32.30;21.50;;;;;;;4.40;51.80;103708.30;106131;1266;250956;-53
2024/01/31 02:01:23;;;;;;;32.80;22.40;;;;;;;4.42;52.10;103705.31;106361;1263;24229;-52
2024/01/31 02:03:54;;;;;;;30.80;22.00;;;;;;;4.46;52.04;103707.41;106346;1279;27217;-52
2024/01/31 02:06:23;;;;;;;33.10;21.70;;;;;;;4.50;51.90;103705.36;106670;1269;25361;-52
2024/01/31 02:08:50;;;;;;;29.30;20.80;;;;;;;4.54;51.76;103706.27;105910;1261;1003397;-52
2024/01/31 02:11:18;;;;;;;28.90;20.10;;;;;;;4.60;51.80;103708.29;106555;1272;22530;-54
2024/01/31 02:13:46;;;;;;;29.70;20.40;;;;;;;4.66;51.74;103711.02;106590;1271;22559;-51
2024/01/31 02:16:14;;;;;;;28.90;19.00;;;;;;;4.72;51.69;103711.64;106522;1263;24501;-53
2024/01/31 02:18:42;;;;;;;26.60;18.00;;;;;;;4.78;51.17;103708.16;105635;1266;1003829;-52
2024/01/31 02:21:09;;;;;;;29.50;19.20;;;;;;;4.82;50.68;103709.72;106032;1271;1002969;-52
2024/01/31 02:23:37;;;;;;;25.90;18.00;;;;;;;4.83;50.26;103708.08;106164;1267;1003777;-52
2024/01/31 02:26:05;;;;;;;24.90;18.70;;;;;;;4.84;50.20;103704.16;106803;1264;25389;-52
2024/01/31 02:28:33;;;;;;;23.80;15.60;;;;;;;4.85;49.95;103704.70;106148;1274;1003671;-52
2024/01/31 02:31:01;;;;;;;21.80;15.50;;;;;;;4.82;49.63;103698.91;106062;1267;1003458;-52
2024/01/31 02:33:29;;;;;;;19.80;14.20;;;;;;;4.82;49.29;103695.45;106037;1264;1002950;-52
2024/01/31 02:35:56;;;;;;;19.40;13.60;;;;;;;4.79;49.09;103686.53;106014;1267;1002825;-52
2024/01/31 02:38:24;;;;;;;17.50;12.70;;;;;;;4.76;48.89;103685.86;106742;1266;22557;-53
2024/01/31 02:40:52;;;;;;;17.90;13.70;;;;;;;4.72;48.82;103681.72;106824;1273;22522;-52
2024/01/31 02:43:20;;;;;;;18.50;13.50;;;;;;;4.68;48.73;103678.44;105856;1267;1003820;-52
2024/01/31 02:45:48;;;;;;;17.40;12.50;;;;;;;4.65;48.79;103681.35;106892;1263;24201;-53
2024/01/31 02:48:15;;;;;;;15.90;13.00;;;;;;;4.63;48.80;103682.84;106894;1257;22741;-52
2024/01/31 02:50:44;;;;;;;17.30;12.70;;;;;;;4.60;48.78;103680.80;106845;1273;22529;-52
2024/01/31 02:53:12;;;;;;;18.60;14.30;;;;;;;4.59;48.49;103679.73;107007;1259;25357;-53
2024/01/31 02:55:39;;;;;;;16.80;13.00;;;;;;;4.54;48.62;103674.48;106034;1254;1003410;-53
2024/01/31 02:58:08;;;;;;;18.50;14.40;;;;;;;4.49;48.67;103676.48;106404;1264;1002629;-53
2024/01/31 03:00:35;;;;;;;21.50;15.70;;;;;;;4.47;48.68;103675.48;106636;1257;22530;-52
2024/01/31 03:03:04;;;;;;;23.10;15.50;;;;;;;4.44;48.91;103675.31;106690;1254;22533;-52
2024/01/31 03:05:32;;;;;;;19.80;14.50;;;;;;;4.42;49.13;103676.64;106592;1257;24208;-53
2024/01/31 03:08:00;;;;;;;21.80;14.90;;;;;;;4.42;49.33;103676.09;106361;1269;22541;-52
2024/01/31 03:10:27;;;;;;;22.60;16.00;;;;;;;4.41;48.97;103678.98;106630;1264;22551;-52
2024/01/31 03:12:55;;;;;;;21.70;14.70;;;;;;;4.44;48.94;103681.87;105939;1267;1003528;-52
2024/01/31 03:15:23;;;;;;;20.40;14.90;;;;;;;4.45;49.16;103680.19;105894;1268;1002713;-52
2024/01/31 03:17:51;;;;;;;19.40;14.70;;;;;;;4.46;49.06;103682.46;106064;1261;1002868;-53
2024/01/31 03:20:18;;;;;;;20.10;14.70;;;;;;;4.47;49.05;103686.98;106135;1272;1003389;-52
2024/01/31 03:22:46;;;;;;;20.10;14.80;;;;;;;4.47;48.93;103682.70;106773;1260;24272;-52
2024/01/31 03:25:14;;;;;;;23.20;15.30;;;;;;;4.48;48.89;103684.10;106928;1260;22560;-52
2024/01/31 03:27:43;;;;;;;18.50;13.90;;;;;;;4.44;48.81;103682.19;106807;1269;22549;-53
2024/01/31 03:30:11;;;;;;;19.40;14.50;;;;;;;4.46;48.89;103682.30;106049;1260;1002331;-52
2024/01/31 03:32:39;;;;;;;19.00;13.80;;;;;;;4.49;48.88;103685.72;106792;1258;22577;-52
2024/01/31 03:35:08;;;;;;;19.30;14.30;;;;;;;4.50;48.54;103689.08;106778;1273;22534;-52
2024/01/31 03:37:36;;;;;;;19.20;14.70;;;;;;;4.51;48.51;103684.96;106723;1260;24255;-53
2024/01/31 03:40:06;;;;;;;18.70;13.80;;;;;;;4.51;48.55;103684.98;106635;1267;22549;-52
2024/01/31 03:42:34;;;;;;;19.50;13.80;;;;;;;4.50;48.67;103689.76;105843;1257;1003761;-52
2024/01/31 03:45:04;;;;;;;19.10;15.00;;;;;;;4.49;48.49;103695.34;105861;1269;1003295;-53
2024/01/31 03:47:34;;;;;;;19.30;14.80;;;;;;;4.46;48.28;103696.79;106607;1260;22527;-52
2024/01/31 03:50:04;;;;;;;17.60;13.70;;;;;;;4.45;48.44;103696.85;106625;1270;22548;-52
2024/01/31 03:52:35;;;;;;;17.00;13.70;;;;;;;4.41;48.33;103693.60;106304;1264;25433;-52
2024/01/31 03:55:05;;;;;;;23.20;14.80;;;;;;;4.39;48.45;103693.45;105877;1254;1003113;-53
2024/01/31 03:57:50;;;;;;;19.40;13.90;;;;;;;4.32;48.74;103690.70;106686;1261;23246;-53
2024/01/31 04:00:18;;;;;;;19.50;15.10;;;;;;;4.30;48.69;103685.64;105893;1258;1003230;-52
2024/01/31 04:02:46;;;;;;;18.30;14.80;;;;;;;4.34;48.53;103682.05;106830;1254;22532;-52
2024/01/31 04:05:16;;;;;;;21.60;15.20;;;;;;;4.36;48.48;103689.55;106840;1254;22532;-52
2024/01/31 04:07:44;;;;;;;19.30;13.80;;;;;;;4.36;48.56;103686.61;106702;1257;22525;-53
2024/01/31 04:10:14;;;;;;;19.40;13.90;;;;;;;4.35;48.62;103681.08;106016;1264;1003452;-53
2024/01/31 04:12:42;;;;;;;18.60;14.40;;;;;;;4.36;48.41;103679.89;106607;1269;22527;-53
2024/01/31 04:15:09;;;;;;;19.00;14.30;;;;;;;4.35;48.57;103684.69;106633;1264;22843;-53
2024/01/31 04:17:39;;;;;;;19.70;14.80;;;;;;;4.34;48.37;103681.89;106596;1263;22533;-53
2024/01/31 04:20:07;;;;;;;17.20;14.30;;;;;;;4.33;48.62;103676.16;105890;1254;1003703;-55
2024/01/31 04:22:35;;;;;;;21.80;15.40;;;;;;;4.32;48.72;103672.84;106601;1258;24223;-53
2024/01/31 04:25:04;;;;;;;20.30;15.00;;;;;;;4.30;48.62;103674.98;106538;1268;22575;-53
2024/01/31 04:27:32;;;;;;;18.70;14.50;;;;;;;4.34;48.50;103676.87;106727;1254;22576;-53
2024/01/31 04:30:00;;;;;;;18.30;14.50;;;;;;;4.35;48.57;103672.98;106671;1273;22526;-52
2024/01/31 04:32:28;;;;;;;16.70;13.60;;;;;;;4.34;48.46;103670.04;105859;1255;1003576;-53
2024/01/31 04:34:55;;;;;;;19.30;14.30;;;;;;;4.35;48.44;103675.77;105873;1257;1002902;-53
2024/01/31 04:37:23;;;;;;;17.60;13.80;;;;;;;4.34;48.50;103672.95;105807;1254;1002864;-52
2024/01/31 04:39:51;;;;;;;17.00;13.50;;;;;;;4.30;48.41;103672.08;105830;1256;1003382;-53
2024/01/31 04:42:20;;;;;;;19.40;14.80;;;;;;;4.24;48.46;103673.45;106604;1257;22624;-52
2024/01/31 04:44:48;;;;;;;20.60;14.50;;;;;;;4.18;48.73;103675.92;106685;1259;25392;-52
2024/01/31 04:47:15;;;;;;;20.90;15.70;;;;;;;4.18;48.90;103676.27;106676;1260;25343;-52
2024/01/31 04:49:43;;;;;;;21.30;15.00;;;;;;;4.18;48.89;103676.44;106585;1257;25268;-53
2024/01/31 04:52:11;;;;;;;20.90;15.60;;;;;;;4.17;48.99;103682.23;106345;1258;22530;-51
2024/01/31 04:54:39;;;;;;;22.90;16.90;;;;;;;4.14;49.28;103680.34;106451;1260;22648;-52
2024/01/31 04:57:07;;;;;;;23.40;16.10;;;;;;;4.12;48.99;103686.08;105689;1260;1003477;-53
2024/01/31 04:59:38;;;;;;;21.70;16.70;;;;;;;4.11;49.32;103692.76;106286;1258;24373;-53
2024/01/31 05:02:07;;;;;;;19.80;15.20;;;;;;;4.13;49.34;103694.40;105884;1260;1003112;-53
2024/01/31 05:04:39;;;;;;;20.10;15.40;;;;;;;4.11;49.20;103688.09;105859;1257;1003444;-52
2024/01/31 05:07:07;;;;;;;19.80;15.00;;;;;;;4.05;49.23;103689.15;106588;1257;22784;-52
2024/01/31 05:09:35;;;;;;;18.50;14.40;;;;;;;3.98;49.23;103681.57;105871;1258;1003064;-53
2024/01/31 05:12:04;;;;;;;21.40;15.90;;;;;;;3.93;49.54;103678.07;106015;1267;1003861;-52
2024/01/31 05:14:31;;;;;;;22.60;15.20;;;;;;;3.93;49.63;103676.16;106921;1257;25353;-52
2024/01/31 05:16:59;;;;;;;20.10;15.10;;;;;;;3.97;49.66;103675.48;106582;1264;25325;-52
2024/01/31 05:19:27;;;;;;;22.10;14.70;;;;;;;4.01;49.93;103676.59;106723;1270;22543;-52
2024/01/31 05:21:57;;;;;;;19.10;15.30;;;;;;;4.10;49.60;103673.46;105954;1260;1003290;-53
2024/01/31 05:24:25;;;;;;;20.30;15.00;;;;;;;4.15;49.72;103669.55;105867;1257;1003782;-52
2024/01/31 05:26:53;;;;;;;22.00;15.70;;;;;;;4.18;49.43;103671.63;105899;1268;1002981;-53
2024/01/31 05:29:21;;;;;;;19.70;14.40;;;;;;;4.21;49.20;103668.99;106376;1263;25365;-52
2024/01/31 05:31:51;;;;;;;18.00;14.20;;;;;;;4.22;49.15;103669.06;106263;1257;22537;-52
2024/01/31 05:34:18;;;;;;;25.30;15.10;;;;;;;4.24;48.78;103670.55;105930;1257;1003753;-52
2024/01/31 05:36:46;;;;;;;19.90;14.90;;;;;;;4.25;48.88;103672.63;106014;1254;1002725;-52
2024/01/31 05:39:14;;;;;;;19.20;15.10;;;;;;;4.25;48.70;103669.05;106034;1261;1003100;-52
2024/01/31 05:41:46;;;;;;;17.50;14.20;;;;;;;4.25;48.54;103667.17;106115;1269;1003190;-53
2024/01/31 05:44:15;;;;;;;18.50;14.40;;;;;;;4.25;48.43;103663.38;106824;1268;22525;-54
2024/01/31 05:46:44;;;;;;;19.70;14.00;;;;;;;4.23;48.42;103660.36;106120;1254;1003273;-53
2024/01/31 05:49:12;;;;;;;20.20;15.20;;;;;;;4.21;48.29;103659.89;106081;1261;1003077;-53
2024/01/31 05:51:41;;;;;;;20.20;14.70;;;;;;;4.18;48.28;103656.31;106768;1255;22539;-53
2024/01/31 05:54:09;;;;;;;19.80;13.90;;;;;;;4.15;48.35;103654.25;106727;1260;23186;-53
2024/01/31 05:56:38;;;;;;;18.00;14.30;;;;;;;4.14;48.38;103656.11;106835;1254;22524;-54
2024/01/31 05:59:05;;;;;;;17.80;13.90;;;;;;;4.17;48.63;103651.48;106779;1270;22659;-52
2024/01/31 06:01:33;;;;;;;18.00;13.90;;;;;;;4.24;48.83;103648.70;106930;1260;22554;-52
2024/01/31 06:04:03;;;;;;;18.20;14.00;;;;;;;4.36;48.91;103648.64;106670;1258;22522;-52
2024/01/31 06:06:31;;;;;;;18.20;13.50;;;;;;;4.52;48.81;103645.65;106874;1257;22523;-53
2024/01/31 06:09:00;;;;;;;16.80;12.60;;;;;;;4.67;48.69;103645.00;106832;1254;25276;-53
2024/01/31 06:11:28;;;;;;;18.30;14.10;;;;;;;4.79;48.00;103646.98;106861;1257;24188;-53
2024/01/31 06:13:56;;;;;;;15.50;12.90;;;;;;;4.90;47.96;103652.66;106128;1270;1003149;-53
2024/01/31 06:16:24;;;;;;;17.20;12.80;;;;;;;5.02;47.71;103658.02;106088;1259;1003023;-53
2024/01/31 06:18:51;;;;;;;18.30;14.60;;;;;;;5.12;47.58;103657.50;106034;1269;1003016;-53
2024/01/31 06:21:19;;;;;;;16.20;13.10;;;;;;;5.26;47.61;103660.02;106062;1269;1003653;-52
2024/01/31 06:23:47;;;;;;;17.80;14.00;;;;;;;5.38;47.24;103663.69;106102;1257;1002444;-52
2024/01/31 06:26:15;;;;;;;16.90;13.50;;;;;;;5.44;46.91;103667.77;106011;1273;1003092;-52
2024/01/31 06:28:43;;;;;;;22.00;15.00;;;;;;;5.51;46.81;103669.45;106059;1268;1002990;-52
2024/01/31 06:31:16;;;;;;;19.50;14.00;;;;;;;5.57;46.82;103670.40;106125;1268;1003063;-52
2024/01/31 06:33:46;;;;;;;17.80;13.60;;;;;;;5.63;46.79;103673.46;106778;1257;22537;-52
2024/01/31 06:36:14;;;;;;;17.90;14.00;;;;;;;5.72;46.79;103674.02;106859;1254;22539;-53
2024/01/31 06:38:41;;;;;;;16.70;13.70;;;;;;;5.79;46.87;103675.73;106763;1260;22533;-53
2024/01/31 06:41:13;;;;;;;15.40;13.00;;;;;;;5.83;46.99;103675.05;106782;1269;22578;-53
2024/01/31 06:43:40;;;;;;;17.80;14.00;;;;;;;5.96;46.97;103671.66;106789;1269;22549;-52
2024/01/31 06:46:08;;;;;;;18.80;13.70;;;;;;;6.05;46.70;103664.48;106779;1257;22534;-52
2024/01/31 06:48:36;;;;;;;16.50;13.10;;;;;;;6.13;46.64;103667.41;106090;1270;1003689;-53
2024/01/31 06:51:05;;;;;;;16.00;13.50;;;;;;;6.22;46.43;103667.30;106037;1253;1003329;-52
2024/01/31 06:53:32;;;;;;;16.30;12.70;;;;;;;6.30;46.19;103670.05;106812;1261;22562;-52
2024/01/31 06:56:00;;;;;;;18.20;13.80;;;;;;;6.33;46.11;103663.48;106743;1269;22539;-52
2024/01/31 06:58:28;;;;;;;18.20;14.10;;;;;;;6.33;46.11;103663.62;106771;1270;23711;-53
2024/01/31 07:00:59;;;;;;;16.90;14.00;;;;;;;6.32;46.05;103665.66;106073;1253;1002919;-52
2024/01/31 07:03:28;;;;;;;16.30;13.80;;;;;;;6.27;46.23;103663.37;106794;1273;22660;-52
2024/01/31 07:05:58;;;;;;;18.50;13.50;;;;;;;6.23;46.43;103660.60;106145;1268;1003781;-53
2024/01/31 07:08:26;;;;;;;18.80;14.00;;;;;;;6.22;46.63;103660.39;106051;1257;1003774;-52
2024/01/31 07:10:54;;;;;;;20.70;16.00;;;;;;;6.24;46.84;103664.59;106050;1258;1015519;-52
2024/01/31 07:13:21;;;;;;;26.50;17.30;;;;;;;6.30;47.04;103662.82;106826;1268;24254;-52
2024/01/31 07:15:49;;;;;;;24.70;18.20;;;;;;;6.33;47.34;103655.54;106048;1268;1003172;-53
2024/01/31 07:18:17;;;;;;;27.90;19.20;;;;;;;6.37;47.70;103650.16;106748;1260;22645;-53
2024/01/31 07:20:45;;;;;;;26.70;19.10;;;;;;;6.42;48.11;103648.51;106695;1264;23892;-53
2024/01/31 07:23:14;;;;;;;26.60;19.10;;;;;;;6.50;48.32;103645.89;106754;1274;22542;-52
2024/01/31 07:25:41;;;;;;;24.20;17.10;;;;;;;6.59;48.44;103642.95;106785;1256;22637;-53
2024/01/31 07:28:09;;;;;;;25.70;18.10;;;;;;;6.66;48.53;103643.60;106851;1261;22537;-52
2024/01/31 07:30:37;;;;;;;22.90;17.70;;;;;;;6.69;48.65;103650.27;106708;1262;22548;-52
2024/01/31 07:33:05;;;;;;;31.60;17.40;;;;;;;6.75;48.72;103652.44;106763;1269;22533;-53
2024/01/31 07:35:33;;;;;;;21.50;15.60;;;;;;;6.85;48.76;103654.00;106097;1255;1002996;-52
2024/01/31 07:38:00;;;;;;;26.70;17.40;;;;;;;6.90;49.02;103655.09;106949;1270;22598;-53
2024/01/31 07:40:28;;;;;;;28.40;19.40;;;;;;;6.95;49.36;103654.07;106787;1254;22546;-53
2024/01/31 07:42:56;;;;;;;26.10;18.80;;;;;;;7.00;49.43;103653.73;106418;1275;23871;-53
2024/01/31 07:45:24;;;;;;;26.20;19.40;;;;;;;7.05;49.56;103650.86;106569;1260;22541;-52
2024/01/31 07:47:53;;;;;;;28.50;21.20;;;;;;;7.12;49.76;103647.84;106864;1261;25367;-53
2024/01/31 07:50:21;;;;;;;28.70;21.40;;;;;;;7.17;49.72;103647.88;106723;1269;23863;-53
2024/01/31 07:52:49;;;;;;;35.30;22.50;;;;;;;7.23;49.81;103643.10;106887;1269;23867;-53
2024/01/31 07:55:17;;;;;;;26.60;20.70;;;;;;;7.27;49.86;103643.07;106865;1255;24241;-53
2024/01/31 07:57:45;;;;;;;29.30;19.50;;;;;;;7.33;49.92;103638.63;106102;1271;1003074;-53
2024/01/31 08:00:15;;;;;;;25.50;18.20;;;;;;;7.40;49.96;103646.67;106886;1258;22526;-53
2024/01/31 08:02:42;;;;;;;24.40;18.00;;;;;;;7.46;50.13;103644.64;106779;1273;22526;-53
2024/01/31 08:05:10;;;;;;;21.90;17.40;;;;;;;7.53;50.20;103643.88;106796;1255;22529;-53
2024/01/31 08:07:38;;;;;;;23.80;18.20;;;;;;;7.60;50.13;103644.13;106804;1268;25328;-53
2024/01/31 08:10:11;;;;;;;26.90;19.20;;;;;;;7.65;50.05;103635.69;106048;1266;1003074;-52
2024/01/31 08:12:43;;;;;;;22.20;16.90;;;;;;;7.71;50.01;103632.77;106835;1268;22539;-53
2024/01/31 08:15:10;;;;;;;24.10;17.10;;;;;;;7.76;50.02;103632.44;106861;1268;22530;-52
2024/01/31 08:17:38;;;;;;;24.20;18.00;;;;;;;7.80;50.08;103631.05;106824;1269;24531;-52
2024/01/31 08:20:07;;;;;;;21.50;17.10;;;;;;;7.85;50.06;103634.33;106774;1256;24241;-52
2024/01/31 08:22:35;;;;;;;22.90;16.80;;;;;;;7.90;50.08;103632.25;106901;1269;25237;-52
2024/01/31 08:25:08;;;;;;;22.00;16.50;;;;;;;7.93;50.13;103631.84;106082;1258;1003618;-53
2024/01/31 08:27:36;;;;;;;20.30;14.80;;;;;;;7.97;50.10;103630.45;106752;1257;24238;-52
2024/01/31 08:30:05;;;;;;;20.80;15.70;;;;;;;8.01;50.00;103631.07;106822;1254;22537;-53
2024/01/31 08:32:36;;;;;;;20.10;14.90;;;;;;;8.06;50.07;103631.41;106627;1276;22537;-53
2024/01/31 08:35:05;;;;;;;20.70;15.00;;;;;;;8.11;50.18;103632.99;106819;1268;22584;-54
2024/01/31 08:37:34;;;;;;;20.30;14.90;;;;;;;8.17;50.16;103629.05;106848;1269;24275;-54
2024/01/31 08:40:05;;;;;;;18.40;14.40;;;;;;;8.23;50.39;103631.85;106103;1270;1003259;-53
2024/01/31 08:42:39;;;;;;;20.10;15.50;;;;;;;8.30;50.37;103628.30;106836;1270;22538;-52
2024/01/31 08:45:08;;;;;;;17.90;13.90;;;;;;;8.36;50.26;103628.11;106885;1269;25325;-53
2024/01/31 08:47:38;;;;;;;20.40;14.70;;;;;;;8.40;50.12;103630.71;106438;1263;22661;-52
2024/01/31 08:50:07;;;;;;;18.00;13.70;;;;;;;8.45;50.04;103624.98;105737;1269;1002951;-51
2024/01/31 08:52:35;;;;;;;20.10;14.50;;;;;;;8.50;50.06;103619.43;106320;1276;22557;-55
2024/01/31 08:55:03;;;;;;;20.90;15.60;;;;;;;8.56;50.28;103619.63;106556;1269;25370;-53
